Time;durP1;ratioP1;P1;durP2;ratioP2;P2;SDS_P1;SDS_P2;PMS_P1;PMS_P2;Temp;Humidity;BMP_temperature;BMP_pressure;BME280_temperature;BME280_humidity;BME280_pressure;Samples;Min_cycle;Max_cycle;Signal;HPM_P1;HPM_P2
2021/12/11 00:01:25;;;;;;;94.88;33.58;;;;;;;0.90;100.00;99807.72;7397410;19;20192;-44
2021/12/11 00:04:00;;;;;;;82.93;31.67;;;;;;;0.87;100.00;99809.16;7402992;19;20134;-43
2021/12/11 00:06:33;;;;;;;86.93;30.90;;;;;;;0.92;100.00;99811.22;7396232;19;20447;-46
2021/12/11 00:09:11;;;;;;;100.65;37.70;;;;;;;0.94;100.00;99804.56;7402872;19;20131;-45
2021/12/11 00:11:47;;;;;;;93.68;33.72;;;;;;;1.00;100.00;99810.84;7388591;19;20186;-46
2021/12/11 00:14:18;;;;;;;84.10;30.70;;;;;;;0.93;100.00;99818.06;7402401;19;20195;-45
2021/12/11 00:16:48;;;;;;;94.72;35.35;;;;;;;0.90;100.00;99833.09;7395132;19;20190;-46
2021/12/11 00:19:25;;;;;;;80.15;32.22;;;;;;;0.89;100.00;99836.44;7402280;19;20127;-46
2021/12/11 00:21:56;;;;;;;89.95;34.60;;;;;;;0.87;100.00;99834.56;7402129;19;20201;-45
2021/12/11 00:24:30;;;;;;;97.88;36.60;;;;;;;0.90;100.00;99834.75;7397322;19;20126;-46
2021/12/11 00:27:05;;;;;;;80.18;32.28;;;;;;;0.84;100.00;99841.97;7404143;19;20158;-49
2021/12/11 00:29:36;;;;;;;96.38;33.28;;;;;;;0.77;100.00;99836.47;7395615;19;20154;-49
2021/12/11 00:32:10;;;;;;;85.30;30.95;;;;;;;0.80;100.00;99849.41;7399733;19;20139;-46
2021/12/11 00:34:43;;;;;;;83.90;31.73;;;;;;;0.82;100.00;99858.78;7396615;19;20189;-46
2021/12/11 00:37:15;;;;;;;88.55;31.92;;;;;;;0.86;100.00;99858.22;7400091;19;20185;-47
2021/12/11 00:39:48;;;;;;;86.65;33.20;;;;;;;0.76;100.00;99869.38;7396437;19;21041;-46
2021/12/11 00:42:24;;;;;;;83.90;31.90;;;;;;;0.80;100.00;99873.91;7401594;19;20145;-54
2021/12/11 00:44:56;;;;;;;85.20;33.35;;;;;;;0.80;100.00;99874.81;7395753;19;20445;-46
2021/12/11 00:47:29;;;;;;;87.10;32.53;;;;;;;0.76;100.00;99877.91;7398320;19;20154;-47
2021/12/11 00:50:02;;;;;;;80.60;30.33;;;;;;;0.81;100.00;99883.28;7375316;19;20480;-48
2021/12/11 00:52:33;;;;;;;88.50;31.13;;;;;;;0.96;100.00;99883.44;7399589;19;20187;-49
2021/12/11 00:55:04;;;;;;;82.95;30.27;;;;;;;0.96;100.00;99892.72;7395525;19;20246;-48
2021/12/11 00:57:37;;;;;;;78.32;31.92;;;;;;;1.01;100.00;99896.44;7399253;19;20241;-50
2021/12/11 01:00:10;;;;;;;78.47;29.73;;;;;;;1.00;100.00;99899.75;7395750;19;20281;-48
2021/12/11 01:02:40;;;;;;;90.63;33.33;;;;;;;0.97;100.00;99900.44;7400702;19;20386;-45
2021/12/11 01:05:11;;;;;;;84.93;31.52;;;;;;;1.00;100.00;99907.38;7393814;19;20245;-50
2021/12/11 01:07:41;;;;;;;84.47;29.73;;;;;;;0.94;100.00;99903.63;7398919;19;20452;-47
2021/12/11 01:10:14;;;;;;;84.47;31.38;;;;;;;0.91;100.00;99908.53;7394946;19;20423;-46
2021/12/11 01:12:55;;;;;;;78.28;30.23;;;;;;;0.92;100.00;99910.28;7398838;19;20129;-46
2021/12/11 01:15:31;;;;;;;81.28;30.35;;;;;;;0.95;100.00;99912.16;7393772;19;20187;-43
2021/12/11 01:18:21;;;;;;;75.57;31.75;;;;;;;0.99;100.00;99915.78;7398856;19;20158;-43
2021/12/11 01:20:59;;;;;;;85.40;30.90;;;;;;;1.02;100.00;99923.63;7393990;19;20186;-47
2021/12/11 01:23:46;;;;;;;85.33;28.90;;;;;;;1.06;100.00;99930.66;7399862;19;20378;-44
2021/12/11 01:26:19;;;;;;;78.80;30.03;;;;;;;1.04;100.00;99942.38;7393663;19;20880;-43
2021/12/11 01:28:52;;;;;;;72.75;31.13;;;;;;;1.06;100.00;99940.81;7399727;19;20396;-49
2021/12/11 01:31:24;;;;;;;79.70;29.90;;;;;;;1.10;100.00;99941.91;7393266;19;20208;-43
2021/12/11 01:33:55;;;;;;;86.80;32.85;;;;;;;1.02;100.00;99954.97;7400187;19;20154;-48
2021/12/11 01:36:25;;;;;;;84.72;29.50;;;;;;;0.84;100.00;99949.53;7393616;19;20198;-43
2021/12/11 01:38:58;;;;;;;78.43;29.43;;;;;;;0.97;100.00;99942.75;7397859;19;20127;-45
2021/12/11 01:41:27;;;;;;;82.10;31.23;;;;;;;1.00;100.00;99950.56;7394185;19;20567;-46
2021/12/11 01:44:02;;;;;;;73.20;29.85;;;;;;;0.92;100.00;99962.78;7399540;19;20175;-47
2021/12/11 01:46:32;;;;;;;78.65;29.27;;;;;;;0.89;100.00;99958.38;7393293;19;20252;-52
2021/12/11 01:49:04;;;;;;;72.65;27.50;;;;;;;0.87;100.00;99970.06;7399306;19;20142;-53
2021/12/11 01:51:38;;;;;;;76.00;28.65;;;;;;;0.84;100.00;99974.94;7391651;19;20242;-43
2021/12/11 01:54:13;;;;;;;81.18;29.33;;;;;;;0.78;100.00;99982.16;7399020;19;20119;-46
2021/12/11 01:56:46;;;;;;;77.68;28.45;;;;;;;0.80;100.00;99983.13;7392351;19;20257;-50
2021/12/11 01:59:22;;;;;;;84.72;30.30;;;;;;;0.84;100.00;99979.13;7397786;19;20119;-51
2021/12/11 02:01:56;;;;;;;72.72;29.75;;;;;;;0.93;100.00;99989.94;7397971;19;20186;-49
2021/12/11 02:04:29;;;;;;;70.60;27.95;;;;;;;0.95;100.00;99993.44;7393853;19;20118;-43
2021/12/11 02:06:59;;;;;;;68.07;28.13;;;;;;;0.87;100.00;99994.59;7396522;19;20154;-46
2021/12/11 02:09:33;;;;;;;84.20;31.50;;;;;;;0.88;100.00;99997.22;7393206;19;20127;-46
2021/12/11 02:12:08;;;;;;;77.88;27.95;;;;;;;0.76;100.00;100006.53;7397871;19;20145;-46
2021/12/11 02:14:46;;;;;;;89.22;31.00;;;;;;;0.67;100.00;100014.41;7393539;19;20126;-45
2021/12/11 02:17:19;;;;;;;87.47;31.63;;;;;;;0.70;100.00;100011.19;7398124;19;20509;-43
2021/12/11 02:19:50;;;;;;;82.18;29.42;;;;;;;0.79;100.00;100011.84;7393517;19;20242;-44
2021/12/11 02:22:26;;;;;;;76.97;27.83;;;;;;;0.93;100.00;100016.19;7398536;19;20198;-46
2021/12/11 02:24:58;;;;;;;77.40;29.48;;;;;;;0.79;100.00;100016.91;7393027;19;20245;-46
2021/12/11 02:27:30;;;;;;;78.30;28.80;;;;;;;0.86;100.00;100014.03;7396503;19;20175;-46
2021/12/11 02:30:05;;;;;;;82.40;27.95;;;;;;;0.97;100.00;100026.59;7392811;19;20187;-45
2021/12/11 02:32:39;;;;;;;85.17;30.77;;;;;;;0.89;100.00;100023.50;7397019;19;20137;-43
2021/12/11 02:35:13;;;;;;;89.18;29.52;;;;;;;0.87;100.00;100025.94;7392128;19;20406;-45
2021/12/11 02:37:50;;;;;;;76.30;29.27;;;;;;;0.85;100.00;100030.03;7396107;19;20202;-44
2021/12/11 02:40:22;;;;;;;75.97;27.40;;;;;;;0.93;100.00;100028.91;7392259;19;20186;-43
2021/12/11 02:42:57;;;;;;;74.20;30.50;;;;;;;0.89;100.00;100028.59;7398040;19;20408;-44
2021/12/11 02:45:32;;;;;;;79.88;28.58;;;;;;;0.89;100.00;100032.03;7392215;19;20241;-43
2021/12/11 02:48:07;;;;;;;77.75;27.90;;;;;;;0.91;100.00;100037.19;7396022;19;20160;-45
2021/12/11 02:50:41;;;;;;;76.32;29.52;;;;;;;0.85;100.00;100024.97;7392326;19;20242;-43
2021/12/11 02:53:16;;;;;;;77.72;28.58;;;;;;;0.84;100.00;100035.00;7395012;19;20206;-46
2021/12/11 02:55:51;;;;;;;78.25;29.38;;;;;;;0.86;100.00;100043.63;7390095;19;20186;-44
2021/12/11 02:58:24;;;;;;;82.43;30.90;;;;;;;0.89;100.00;100047.28;7395723;19;20553;-44
2021/12/11 03:00:58;;;;;;;81.40;28.98;;;;;;;0.82;100.00;100055.22;7391656;19;20510;-43
2021/12/11 03:03:33;;;;;;;74.65;28.17;;;;;;;0.87;100.00;100053.03;7402877;19;20151;-48
2021/12/11 03:06:09;;;;;;;69.93;28.50;;;;;;;0.94;100.00;100053.53;7399297;19;20189;-50
2021/12/11 03:08:41;;;;;;;81.35;31.27;;;;;;;0.91;100.00;100058.41;7404486;19;20171;-46
2021/12/11 03:11:16;;;;;;;78.00;28.20;;;;;;;0.85;100.00;100068.16;7397820;19;20203;-48
2021/12/11 03:13:50;;;;;;;70.97;28.30;;;;;;;0.78;100.00;100065.97;7401682;19;20537;-50
2021/12/11 03:16:20;;;;;;;75.38;28.05;;;;;;;0.92;100.00;100065.25;7397989;19;20398;-47
2021/12/11 03:18:50;;;;;;;75.78;29.45;;;;;;;0.88;100.00;100063.25;7404177;19;20183;-47
2021/12/11 03:21:20;;;;;;;75.25;29.35;;;;;;;0.94;100.00;100065.38;7398174;19;20540;-45
2021/12/11 03:23:54;;;;;;;78.63;30.13;;;;;;;0.80;100.00;100074.56;7404207;19;20127;-48
2021/12/11 03:26:24;;;;;;;120.05;42.42;;;;;;;0.89;100.00;100074.31;7396525;19;20193;-48
2021/12/11 03:28:54;;;;;;;92.30;32.75;;;;;;;1.04;100.00;100077.03;7404063;19;20153;-49
2021/12/11 03:31:24;;;;;;;79.97;27.80;;;;;;;0.99;100.00;100080.91;7397306;19;20241;-43
2021/12/11 03:33:57;;;;;;;68.77;27.23;;;;;;;0.88;100.00;100082.72;7401155;19;20134;-46
2021/12/11 03:36:32;;;;;;;75.00;28.42;;;;;;;0.86;100.00;100082.59;7397188;19;20724;-44
2021/12/11 03:39:09;;;;;;;73.33;29.50;;;;;;;0.89;100.00;100090.47;7403291;19;20144;-44
2021/12/11 03:41:39;;;;;;;75.53;29.93;;;;;;;0.94;100.00;100085.69;7397943;19;20407;-46
2021/12/11 03:44:10;;;;;;;83.82;29.25;;;;;;;0.91;100.00;100088.91;7403551;19;20676;-42
2021/12/11 03:46:40;;;;;;;69.73;29.13;;;;;;;0.86;100.00;100092.75;7396640;19;20198;-46
2021/12/11 03:49:12;;;;;;;74.10;29.13;;;;;;;0.88;100.00;100100.50;7403204;19;20458;-49
2021/12/11 03:51:43;;;;;;;74.32;29.58;;;;;;;0.83;100.00;100101.81;7396313;19;20467;-48
2021/12/11 03:54:19;;;;;;;70.60;27.87;;;;;;;0.76;100.00;100113.19;7401002;19;20568;-47
2021/12/11 03:56:50;;;;;;;70.47;28.60;;;;;;;0.63;100.00;100127.59;7396407;19;20559;-44
2021/12/11 03:59:20;;;;;;;68.97;27.35;;;;;;;0.46;100.00;100140.72;7402813;19;20526;-42
2021/12/11 04:01:54;;;;;;;82.40;31.20;;;;;;;0.64;100.00;100129.34;7402050;19;20199;-43
2021/12/11 04:04:26;;;;;;;79.18;29.20;;;;;;;0.77;100.00;100135.31;7397728;19;20126;-48
2021/12/11 04:06:57;;;;;;;75.22;27.98;;;;;;;0.78;100.00;100135.41;7403601;19;20163;-43
2021/12/11 04:09:30;;;;;;;74.72;29.63;;;;;;;0.63;100.00;100140.28;7397044;19;20134;-42
2021/12/11 04:12:01;;;;;;;80.13;28.13;;;;;;;0.54;100.00;100147.22;7400634;19;20133;-44
2021/12/11 04:14:34;;;;;;;71.18;28.38;;;;;;;0.53;100.00;100142.94;7397192;19;20135;-43
2021/12/11 04:17:06;;;;;;;68.57;24.80;;;;;;;0.47;100.00;100147.56;7400556;19;20167;-43
2021/12/11 04:19:36;;;;;;;71.28;27.02;;;;;;;0.45;100.00;100151.66;7397246;19;20171;-43
2021/12/11 04:22:07;;;;;;;74.55;27.73;;;;;;;0.56;100.00;100155.81;7401717;19;20154;-48
2021/12/11 04:24:40;;;;;;;78.93;28.30;;;;;;;0.52;100.00;100149.66;7397171;19;20119;-45
2021/12/11 04:27:12;;;;;;;76.75;27.33;;;;;;;0.50;100.00;100160.47;7400855;19;20176;-42
2021/12/11 04:29:43;;;;;;;71.93;27.50;;;;;;;0.42;100.00;100166.66;7396652;19;20131;-43
2021/12/11 04:32:13;;;;;;;75.95;27.88;;;;;;;0.40;100.00;100169.97;7401823;19;20125;-44
2021/12/11 04:34:43;;;;;;;70.13;25.63;;;;;;;0.39;100.00;100170.75;7395413;19;20139;-41
2021/12/11 04:37:17;;;;;;;72.93;26.50;;;;;;;0.42;100.00;100179.34;7399883;19;20169;-43
2021/12/11 04:39:58;;;;;;;69.90;26.27;;;;;;;0.34;100.00;100184.75;7396335;19;20182;-45
2021/12/11 04:42:38;;;;;;;69.22;26.05;;;;;;;0.34;100.00;100184.75;7401913;19;20170;-46
2021/12/11 04:45:10;;;;;;;68.47;26.23;;;;;;;0.35;100.00;100186.50;7395247;19;20200;-43
2021/12/11 04:47:45;;;;;;;62.17;25.35;;;;;;;0.36;100.00;100187.41;7398121;19;20210;-48
2021/12/11 04:50:23;;;;;;;73.60;26.98;;;;;;;0.38;100.00;100184.22;7393217;19;20192;-42
2021/12/11 04:52:55;;;;;;;64.85;26.48;;;;;;;0.36;100.00;100178.13;7400800;19;20129;-43
2021/12/11 04:55:52;;;;;;;67.82;27.45;;;;;;;0.41;100.00;100186.06;7395290;19;20190;-43
2021/12/11 04:58:46;;;;;;;73.18;27.27;;;;;;;0.45;100.00;100182.13;7399196;19;20163;-47
2021/12/11 05:01:33;;;;;;;82.13;27.70;;;;;;;0.45;100.00;100192.28;7395521;19;20186;-49
2021/12/11 05:04:32;;;;;;;70.15;26.27;;;;;;;0.44;100.00;100199.00;7399918;19;20123;-44
2021/12/11 05:07:07;;;;;;;74.80;26.55;;;;;;;0.39;100.00;100203.75;7398055;19;20178;-44
2021/12/11 05:09:53;;;;;;;71.95;26.25;;;;;;;0.36;100.00;100205.16;7395413;19;20131;-45
2021/12/11 05:12:34;;;;;;;72.10;26.92;;;;;;;0.37;100.00;100209.47;7400686;19;20133;-44
2021/12/11 05:15:13;;;;;;;68.55;26.67;;;;;;;0.46;100.00;100217.75;7393347;19;20247;-52
2021/12/11 05:17:43;;;;;;;72.57;26.38;;;;;;;0.40;100.00;100215.66;7398688;19;20210;-46
2021/12/11 05:20:15;;;;;;;70.65;26.73;;;;;;;0.42;100.00;100217.41;7394853;19;20193;-43
2021/12/11 05:22:45;;;;;;;68.00;26.58;;;;;;;0.48;100.00;100222.94;7398924;19;20115;-48
2021/12/11 05:25:17;;;;;;;65.85;26.13;;;;;;;0.48;100.00;100221.31;7392449;19;20205;-45
2021/12/11 05:27:49;;;;;;;62.55;26.38;;;;;;;0.48;100.00;100220.41;7399097;19;20159;-45
2021/12/11 05:30:22;;;;;;;72.57;26.73;;;;;;;0.51;100.00;100226.59;7395037;19;20193;-44
2021/12/11 05:32:53;;;;;;;83.38;28.85;;;;;;;0.46;100.00;100230.44;7399655;19;20121;-47
2021/12/11 05:35:23;;;;;;;67.55;27.48;;;;;;;0.38;100.00;100232.44;7393217;19;20191;-47
2021/12/11 05:37:52;;;;;;;66.05;25.13;;;;;;;0.34;100.00;100235.50;7398792;19;20151;-49
2021/12/11 05:40:24;;;;;;;67.65;24.92;;;;;;;0.26;100.00;100246.75;7394353;19;20190;-47
2021/12/11 05:42:57;;;;;;;69.75;25.13;;;;;;;0.19;100.00;100254.63;7398214;19;20119;-46
2021/12/11 05:45:27;;;;;;;73.70;24.85;;;;;;;0.17;100.00;100261.25;7393205;19;20196;-47
2021/12/11 05:47:57;;;;;;;66.05;25.70;;;;;;;0.20;100.00;100266.59;7398330;19;20159;-43
2021/12/11 05:50:31;;;;;;;73.03;27.23;;;;;;;0.18;100.00;100263.03;7394114;19;20186;-44
2021/12/11 05:53:01;;;;;;;67.88;26.33;;;;;;;0.17;100.00;100271.41;7399288;19;20135;-41
2021/12/11 05:55:32;;;;;;;69.00;25.38;;;;;;;0.16;100.00;100272.19;7393222;19;20182;-43
2021/12/11 05:58:10;;;;;;;71.90;28.25;;;;;;;0.12;100.00;100268.53;7397549;19;20222;-43
2021/12/11 06:00:44;;;;;;;69.18;25.80;;;;;;;0.08;100.00;100280.09;7391976;19;20266;-46
2021/12/11 06:03:15;;;;;;;78.43;27.58;;;;;;;0.16;100.00;100279.81;7398862;19;20376;-44
2021/12/11 06:05:45;;;;;;;70.13;26.73;;;;;;;0.09;100.00;100275.91;7393718;19;20187;-45
2021/12/11 06:08:15;;;;;;;70.97;27.40;;;;;;;0.07;100.00;100287.59;7400344;19;20162;-46
2021/12/11 06:10:45;;;;;;;74.82;27.83;;;;;;;0.00;100.00;100283.72;7393318;19;20246;-45
2021/12/11 06:13:17;;;;;;;63.33;25.70;;;;;;;-0.05;100.00;100296.03;7398501;19;20139;-45
2021/12/11 06:15:47;;;;;;;77.00;27.02;;;;;;;-0.01;100.00;100292.06;7393032;19;20183;-45
2021/12/11 06:18:18;;;;;;;75.88;27.45;;;;;;;0.01;100.00;100290.56;7397018;19;20165;-43
2021/12/11 06:20:49;;;;;;;80.93;29.63;;;;;;;0.05;100.00;100295.06;7391591;19;20246;-43
2021/12/11 06:23:21;;;;;;;82.38;29.13;;;;;;;0.01;100.00;100305.78;7398292;19;20181;-49
2021/12/11 06:25:53;;;;;;;78.97;28.30;;;;;;;0.01;100.00;100304.88;7391795;19;20190;-43
2021/12/11 06:28:27;;;;;;;69.85;27.75;;;;;;;0.01;100.00;100303.25;7396807;19;20154;-42
2021/12/11 06:30:58;;;;;;;71.20;27.05;;;;;;;-0.08;100.00;100305.94;7392973;19;20192;-44
2021/12/11 06:33:29;;;;;;;67.00;26.38;;;;;;;-0.06;100.00;100308.63;7397955;19;20181;-44
2021/12/11 06:36:03;;;;;;;69.05;27.83;;;;;;;-0.10;100.00;100307.47;7393559;19;20455;-45
2021/12/11 06:38:35;;;;;;;68.07;26.45;;;;;;;-0.15;100.00;100309.66;7404661;19;20416;-43
2021/12/11 06:41:08;;;;;;;72.32;27.00;;;;;;;-0.17;100.00;100316.25;7400361;19;20590;-42
2021/12/11 06:43:40;;;;;;;71.18;26.50;;;;;;;-0.24;100.00;100321.63;7405745;19;20115;-43
2021/12/11 06:46:11;;;;;;;75.03;26.38;;;;;;;-0.28;100.00;100327.22;7398866;19;20208;-43
2021/12/11 06:48:41;;;;;;;75.25;26.90;;;;;;;-0.23;100.00;100333.53;7405491;19;20146;-42
2021/12/11 06:51:11;;;;;;;75.40;27.27;;;;;;;-0.25;100.00;100332.53;7399541;19;20643;-42
2021/12/11 06:53:42;;;;;;;80.70;26.67;;;;;;;-0.29;100.00;100333.06;7405099;19;20123;-47
2021/12/11 06:56:16;;;;;;;68.30;26.63;;;;;;;-0.32;100.00;100340.41;7397434;19;20194;-43
2021/12/11 06:58:48;;;;;;;75.07;26.35;;;;;;;-0.32;100.00;100348.00;7405152;19;20194;-43
2021/12/11 07:01:18;;;;;;;68.00;26.15;;;;;;;-0.32;100.00;100358.16;7399373;19;20190;-45
2021/12/11 07:03:48;;;;;;;73.63;26.05;;;;;;;-0.35;100.00;100357.94;7405052;19;20178;-44
2021/12/11 07:06:18;;;;;;;74.57;25.70;;;;;;;-0.34;100.00;100370.75;7398021;19;20193;-43
2021/12/11 07:08:49;;;;;;;63.40;25.85;;;;;;;-0.38;100.00;100370.34;7404445;19;20119;-43
2021/12/11 07:11:20;;;;;;;82.25;26.83;;;;;;;-0.42;100.00;100380.25;7398999;19;20186;-42
2021/12/11 07:13:53;;;;;;;78.90;28.80;;;;;;;-0.39;100.00;100391.41;7403454;19;20201;-45
2021/12/11 07:16:22;;;;;;;81.13;31.08;;;;;;;-0.43;100.00;100390.28;7398112;19;20254;-48
2021/12/11 07:18:52;;;;;;;80.47;27.50;;;;;;;-0.35;100.00;100388.34;7404438;19;20534;-42
2021/12/11 07:21:22;;;;;;;82.00;31.13;;;;;;;-0.19;100.00;100396.44;7398139;19;20452;-42
2021/12/11 07:23:52;;;;;;;91.53;35.85;;;;;;;0.04;100.00;100402.41;7404193;19;20523;-48
2021/12/11 07:26:30;;;;;;;108.97;37.90;;;;;;;0.71;100.00;100404.94;7396817;19;20194;-43
2021/12/11 07:29:06;;;;;;;84.60;34.58;;;;;;;0.49;100.00;100402.44;7402701;19;20131;-46
2021/12/11 07:31:36;;;;;;;72.03;28.48;;;;;;;0.30;100.00;100406.09;7398292;19;20196;-47
2021/12/11 07:34:06;;;;;;;73.32;27.23;;;;;;;0.33;100.00;100407.97;7403728;19;20206;-47
2021/12/11 07:36:36;;;;;;;70.22;26.42;;;;;;;0.07;100.00;100415.34;7397029;19;20191;-48
2021/12/11 07:39:10;;;;;;;56.33;23.73;;;;;;;-0.16;100.00;100416.94;7403631;19;20194;-46
2021/12/11 07:41:40;;;;;;;69.50;25.25;;;;;;;-0.14;100.00;100417.94;7398323;19;20189;-43
2021/12/11 07:44:12;;;;;;;59.58;23.83;;;;;;;-0.14;100.00;100428.09;7403816;19;20123;-44
2021/12/11 07:46:42;;;;;;;65.40;22.92;;;;;;;-0.20;100.00;100432.66;7396501;19;20468;-47
2021/12/11 07:49:12;;;;;;;60.13;22.83;;;;;;;-0.17;100.00;100440.53;7400397;19;20136;-47
2021/12/11 07:51:42;;;;;;;58.10;22.67;;;;;;;-0.14;100.00;100443.31;7397642;19;20190;-44
2021/12/11 07:54:12;;;;;;;63.70;22.23;;;;;;;-0.11;100.00;100439.25;7403122;19;20119;-43
2021/12/11 07:56:41;;;;;;;65.72;24.30;;;;;;;-0.12;100.00;100445.09;7395615;19;20249;-47
2021/12/11 07:59:14;;;;;;;63.10;22.52;;;;;;;-0.05;100.00;100444.81;7402800;19;20138;-47
2021/12/11 08:01:47;;;;;;;64.68;23.85;;;;;;;-0.05;100.00;100454.97;7401300;19;20186;-48
2021/12/11 08:04:17;;;;;;;62.33;22.70;;;;;;;-0.06;100.00;100451.53;7402601;19;20134;-43
2021/12/11 08:06:47;;;;;;;59.65;23.67;;;;;;;-0.04;100.00;100457.59;7394830;19;20254;-45
2021/12/11 08:09:22;;;;;;;57.72;23.75;;;;;;;0.01;100.00;100458.00;7402038;19;20218;-45
2021/12/11 08:11:52;;;;;;;59.08;21.77;;;;;;;-0.02;100.00;100470.41;7401934;19;20170;-43
2021/12/11 08:14:26;;;;;;;56.25;20.65;;;;;;;-0.01;100.00;100478.16;7405839;19;20186;-42
2021/12/11 08:16:58;;;;;;;58.78;22.60;;;;;;;0.04;100.00;100487.81;7399981;19;20448;-46
2021/12/11 08:19:29;;;;;;;52.40;21.35;;;;;;;0.04;100.00;100487.81;7396806;19;20127;-45
2021/12/11 08:22:01;;;;;;;52.25;22.50;;;;;;;0.69;100.00;100484.31;7402531;19;20163;-47
2021/12/11 08:24:31;;;;;;;58.28;22.73;;;;;;;0.58;100.00;100489.47;7395721;19;20195;-46
2021/12/11 08:27:05;;;;;;;80.25;33.88;;;;;;;1.03;100.00;100489.47;7400498;19;20158;-47
2021/12/11 08:29:37;;;;;;;66.88;26.48;;;;;;;1.09;100.00;100497.53;7396688;19;20126;-43
2021/12/11 08:32:07;;;;;;;163.10;60.75;;;;;;;1.58;100.00;100487.59;7401438;19;20135;-44
2021/12/11 08:34:37;;;;;;;43.35;19.65;;;;;;;1.17;100.00;100488.84;7396630;19;20551;-45
2021/12/11 08:37:08;;;;;;;51.83;21.63;;;;;;;0.65;100.00;100501.88;7399594;19;20586;-43
2021/12/11 08:39:39;;;;;;;56.70;21.67;;;;;;;0.47;100.00;100508.06;7396080;19;20123;-47
2021/12/11 08:42:11;;;;;;;51.72;21.20;;;;;;;0.42;100.00;100509.34;7401878;19;20123;-45
2021/12/11 08:44:50;;;;;;;57.65;22.33;;;;;;;0.49;100.00;100509.97;7394796;19;20518;-45
2021/12/11 08:47:23;;;;;;;51.97;21.65;;;;;;;0.42;100.00;100512.78;7399352;19;20198;-44
2021/12/11 08:49:54;;;;;;;57.55;22.83;;;;;;;0.44;100.00;100512.88;7395758;19;20205;-45
2021/12/11 08:52:26;;;;;;;58.47;22.27;;;;;;;0.53;100.00;100516.16;7401287;19;20119;-46
2021/12/11 08:54:56;;;;;;;58.40;24.00;;;;;;;0.47;100.00;100515.69;7395261;19;20197;-42
2021/12/11 08:57:30;;;;;;;52.95;20.58;;;;;;;0.46;100.00;100519.84;7398959;19;20212;-43
2021/12/11 09:00:09;;;;;;;50.47;22.40;;;;;;;0.52;100.00;100524.53;7393051;19;20186;-49
2021/12/11 09:02:44;;;;;;;54.80;19.88;;;;;;;0.50;100.00;100536.22;7399446;19;20129;-47
2021/12/11 09:05:18;;;;;;;52.58;20.95;;;;;;;0.52;100.00;100534.69;7395658;19;20469;-42
2021/12/11 09:07:51;;;;;;;48.72;19.67;;;;;;;0.58;100.00;100530.09;7399359;19;20155;-47
2021/12/11 09:10:25;;;;;;;45.15;19.38;;;;;;;0.62;100.00;100534.63;7395152;19;20194;-46
2021/12/11 09:13:00;;;;;;;51.92;20.35;;;;;;;0.55;100.00;100537.47;7400382;19;20139;-45
2021/12/11 09:15:35;;;;;;;42.85;19.92;;;;;;;0.63;100.00;100538.97;7393897;19;20580;-47
2021/12/11 09:18:07;;;;;;;55.75;20.65;;;;;;;0.63;100.00;100546.59;7398634;19;20165;-44
2021/12/11 09:20:40;;;;;;;50.15;19.70;;;;;;;0.67;100.00;100547.72;7393346;19;20186;-44
2021/12/11 09:23:13;;;;;;;53.90;20.80;;;;;;;0.66;100.00;100551.00;7400256;19;20175;-44
2021/12/11 09:25:46;;;;;;;53.30;22.45;;;;;;;0.73;100.00;100554.91;7394312;19;20222;-45
2021/12/11 09:28:19;;;;;;;45.00;20.42;;;;;;;0.71;100.00;100557.31;7398371;19;20154;-48
2021/12/11 09:31:00;;;;;;;46.47;23.15;;;;;;;0.76;100.00;100556.03;7394481;19;20245;-42
2021/12/11 09:33:39;;;;;;;42.28;18.90;;;;;;;0.80;100.00;100568.22;7399798;19;20171;-45
2021/12/11 09:36:12;;;;;;;51.15;20.85;;;;;;;0.84;100.00;100564.25;7392814;19;20249;-46
2021/12/11 09:38:44;;;;;;;50.88;20.42;;;;;;;0.99;100.00;100563.66;7399638;19;20518;-43
2021/12/11 09:41:25;;;;;;;43.92;17.70;;;;;;;0.86;100.00;100575.44;7392624;19;20186;-45
2021/12/11 09:44:00;;;;;;;50.67;18.67;;;;;;;0.91;100.00;100586.84;7399837;19;20133;-47
2021/12/11 09:46:35;;;;;;;48.55;20.00;;;;;;;0.91;100.00;100597.00;7393505;19;20467;-42
2021/12/11 09:49:06;;;;;;;83.47;29.27;;;;;;;1.15;100.00;100601.31;7399421;19;20443;-45
2021/12/11 09:51:41;;;;;;;46.67;19.27;;;;;;;1.26;100.00;100602.13;7394119;19;20185;-47
2021/12/11 09:54:13;;;;;;;47.45;19.35;;;;;;;1.56;100.00;100600.16;7399259;19;20129;-45
2021/12/11 09:56:46;;;;;;;38.90;16.27;;;;;;;1.32;100.00;100606.06;7391317;19;20196;-48
2021/12/11 09:59:22;;;;;;;59.50;24.42;;;;;;;1.43;100.00;100600.91;7400390;19;20179;-48
2021/12/11 10:01:55;;;;;;;40.78;17.30;;;;;;;1.20;100.00;100610.19;7398273;19;20174;-44
2021/12/11 10:04:31;;;;;;;40.22;18.30;;;;;;;1.19;100.00;100600.81;7393868;19;20123;-47
2021/12/11 10:07:25;;;;;;;46.53;18.60;;;;;;;1.18;100.00;100602.44;7397799;19;20548;-46
2021/12/11 10:10:02;;;;;;;45.80;19.70;;;;;;;1.26;100.00;100595.41;7392944;19;20490;-46
2021/12/11 10:12:35;;;;;;;46.13;18.45;;;;;;;1.26;100.00;100604.69;7398155;19;20125;-44
2021/12/11 10:15:15;;;;;;;39.45;16.67;;;;;;;1.25;100.00;100610.53;7393592;19;20242;-43
2021/12/11 10:17:50;;;;;;;33.72;16.27;;;;;;;1.25;100.00;100613.09;7395279;19;20158;-43
2021/12/11 10:20:24;;;;;;;39.70;16.80;;;;;;;1.36;100.00;100612.25;7393486;19;20186;-45
2021/12/11 10:22:59;;;;;;;37.88;18.10;;;;;;;1.37;100.00;100624.19;7398632;19;20158;-45
2021/12/11 10:25:33;;;;;;;50.47;17.88;;;;;;;1.40;100.00;100619.34;7392427;19;20186;-46
2021/12/11 10:28:06;;;;;;;36.17;15.50;;;;;;;1.43;100.00;100613.63;7397030;19;20229;-44
2021/12/11 10:30:44;;;;;;;37.78;18.23;;;;;;;1.53;100.00;100610.13;7393245;19;20238;-44
2021/12/11 10:33:16;;;;;;;41.27;17.87;;;;;;;1.61;100.00;100616.66;7398165;19;20129;-42
2021/12/11 10:35:50;;;;;;;44.95;17.25;;;;;;;1.63;100.00;100617.66;7392027;19;20423;-44
2021/12/11 10:38:20;;;;;;;44.80;18.27;;;;;;;1.63;100.00;100617.66;7395537;19;20210;-49
2021/12/11 10:40:55;;;;;;;42.35;18.65;;;;;;;1.72;100.00;100618.38;7392261;19;20241;-49
2021/12/11 10:43:28;;;;;;;39.05;16.50;;;;;;;1.76;100.00;100624.56;7397732;19;20154;-45
2021/12/11 10:46:04;;;;;;;45.55;18.25;;;;;;;1.76;100.00;100634.75;7391626;19;20186;-45
2021/12/11 10:48:37;;;;;;;35.70;16.87;;;;;;;1.77;100.00;100639.06;7398139;19;20133;-45
2021/12/11 10:51:09;;;;;;;46.40;19.17;;;;;;;1.84;100.00;100632.78;7392114;19;20482;-45
2021/12/11 10:53:42;;;;;;;46.33;17.00;;;;;;;1.84;100.00;100638.75;7397364;19;20463;-45
2021/12/11 10:56:14;;;;;;;41.03;18.27;;;;;;;1.80;100.00;100638.41;7390207;19;20182;-46
2021/12/11 10:58:48;;;;;;;43.40;17.43;;;;;;;1.80;100.00;100641.81;7397654;19;20248;-45
2021/12/11 11:01:25;;;;;;;48.25;16.33;;;;;;;1.81;100.00;100646.16;7392046;19;20417;-48
2021/12/11 11:03:57;;;;;;;41.07;11.33;;;;;;;1.80;100.00;100648.59;7397446;19;20123;-44
2021/12/11 11:06:27;;;;;;;21.47;9.67;;;;;;;1.82;100.00;100655.56;7390821;19;20428;-42
2021/12/11 11:08:57;;;;;;;32.70;14.83;;;;;;;1.86;100.00;100646.50;7396729;19;20392;-43
2021/12/11 11:11:29;;;;;;;41.90;18.42;;;;;;;1.86;100.00;100649.91;7390628;19;20407;-45
2021/12/11 11:14:00;;;;;;;38.30;18.00;;;;;;;1.95;100.00;100662.44;7396896;19;20134;-50
2021/12/11 11:16:33;;;;;;;36.38;17.70;;;;;;;1.90;100.00;100663.78;7390451;19;20494;-44
2021/12/11 11:19:02;;;;;;;35.67;14.40;;;;;;;1.92;100.00;100672.41;7397113;19;20127;-43
2021/12/11 11:21:35;;;;;;;39.77;15.37;;;;;;;1.93;100.00;100675.81;7391142;19;20423;-47
2021/12/11 11:24:06;;;;;;;41.70;19.10;;;;;;;1.99;100.00;100669.53;7401289;19;20406;-43
2021/12/11 11:26:43;;;;;;;31.30;14.00;;;;;;;1.98;100.00;100674.50;7397392;19;20681;-42
2021/12/11 11:29:14;;;;;;;32.37;14.90;;;;;;;2.04;100.00;100671.56;7403283;19;20408;-42
2021/12/11 11:31:51;;;;;;;32.53;15.27;;;;;;;2.10;100.00;100674.56;7397871;19;20441;-46
2021/12/11 11:34:22;;;;;;;32.72;15.60;;;;;;;2.09;100.00;100676.22;7403918;19;20840;-45
2021/12/11 11:36:53;;;;;;;30.73;14.43;;;;;;;2.13;100.00;100678.22;7401345;19;20250;-44